Time;durP1;ratioP1;P1;durP2;ratioP2;P2;SDS_P1;SDS_P2;PMS_P1;PMS_P2;Temp;Humidity;BMP_temperature;BMP_pressure;BME280_temperature;BME280_humidity;BME280_pressure;Samples;Min_cycle;Max_cycle;Signal;HPM_P1;HPM_P2
2024/03/27 00:01:35;;;;;;;9.80;4.97;;;;;;;;;;5025390;28;20398;-69
2024/03/27 00:04:00;;;;;;;10.68;4.75;;;;;;;;;;5030394;28;20021;-69
2024/03/27 00:06:27;;;;;;;10.73;5.35;;;;;;;;;;5030753;28;20021;-68
2024/03/27 00:08:53;;;;;;;7.82;4.93;;;;;;;;;;5032997;28;20021;-69
2024/03/27 00:11:20;;;;;;;6.93;4.43;;;;;;;;;;5032231;28;20497;-69
2024/03/27 00:13:46;;;;;;;9.85;5.00;;;;;;;;;;5036674;28;20089;-69
2024/03/27 00:16:13;;;;;;;10.27;4.30;;;;;;;;;;5034385;28;20026;-68
2024/03/27 00:18:39;;;;;;;8.73;4.80;;;;;;;;;;5031956;28;20072;-69
2024/03/27 00:21:06;;;;;;;9.75;4.50;;;;;;;;;;5031702;28;20029;-69
2024/03/27 00:23:33;;;;;;;9.60;4.15;;;;;;;;;;5031389;28;20425;-68
2024/03/27 00:25:59;;;;;;;6.97;4.65;;;;;;;;;;5031927;28;20375;-69
2024/03/27 00:28:25;;;;;;;8.23;4.55;;;;;;;;;;5031811;28;20022;-68
2024/03/27 00:30:52;;;;;;;11.52;5.10;;;;;;;;;;5031895;28;20033;-69
2024/03/27 00:33:18;;;;;;;7.38;4.60;;;;;;;;;;5014581;28;20026;-68
2024/03/27 00:35:56;;;;;;;10.52;4.70;;;;;;;;;;5031858;28;20474;-68
2024/03/27 00:38:23;;;;;;;7.35;4.65;;;;;;;;;;5031967;28;20025;-69
2024/03/27 00:40:49;;;;;;;6.55;4.22;;;;;;;;;;5030926;28;20040;-69
2024/03/27 00:43:16;;;;;;;7.78;4.30;;;;;;;;;;5031798;28;20375;-69
2024/03/27 00:45:42;;;;;;;5.93;3.65;;;;;;;;;;5029679;28;20053;-69
2024/03/27 00:48:08;;;;;;;9.23;4.60;;;;;;;;;;5031996;28;20026;-69
2024/03/27 00:50:34;;;;;;;9.13;4.72;;;;;;;;;;5030835;28;20021;-68
2024/03/27 00:53:00;;;;;;;7.15;4.63;;;;;;;;;;5031654;28;20026;-69
2024/03/27 00:55:26;;;;;;;6.47;4.18;;;;;;;;;;5031243;28;20037;-69
2024/03/27 00:57:52;;;;;;;4.53;3.22;;;;;;;;;;5031513;28;20356;-69
2024/03/27 01:00:19;;;;;;;5.65;3.58;;;;;;;;;;5039608;28;20040;-69
2024/03/27 01:02:45;;;;;;;9.57;4.63;;;;;;;;;;5030338;28;20263;-69
2024/03/27 01:05:12;;;;;;;10.93;4.40;;;;;;;;;;5014730;28;20021;-69
2024/03/27 01:07:38;;;;;;;9.02;4.38;;;;;;;;;;5030302;28;20026;-69
2024/03/27 01:10:05;;;;;;;8.85;5.95;;;;;;;;;;5031024;28;20021;-68
2024/03/27 01:12:31;;;;;;;11.32;5.00;;;;;;;;;;5030242;28;20489;-68
2024/03/27 01:14:57;;;;;;;8.38;3.92;;;;;;;;;;5039001;28;20471;-69
2024/03/27 01:17:23;;;;;;;5.68;4.03;;;;;;;;;;5030768;28;20036;-69
2024/03/27 01:19:49;;;;;;;5.60;3.80;;;;;;;;;;5030679;28;20049;-69
2024/03/27 01:22:15;;;;;;;7.70;3.88;;;;;;;;;;5030702;28;20111;-68
2024/03/27 01:24:41;;;;;;;7.47;4.30;;;;;;;;;;5030543;28;20018;-69
2024/03/27 01:27:07;;;;;;;7.57;3.78;;;;;;;;;;5030432;28;20071;-69
2024/03/27 01:29:33;;;;;;;11.85;4.85;;;;;;;;;;5030980;28;20108;-69
2024/03/27 01:31:59;;;;;;;8.20;4.53;;;;;;;;;;5030588;28;20034;-70
2024/03/27 01:34:25;;;;;;;11.65;4.25;;;;;;;;;;5017951;28;20084;-69
2024/03/27 01:36:51;;;;;;;7.35;3.83;;;;;;;;;;5030375;28;20021;-70
2024/03/27 01:39:17;;;;;;;9.13;3.60;;;;;;;;;;5030731;28;20524;-70
2024/03/27 01:41:43;;;;;;;7.07;3.55;;;;;;;;;;5029619;28;20033;-70
2024/03/27 01:44:16;;;;;;;5.70;3.42;;;;;;;;;;5031040;28;20021;-69
2024/03/27 01:46:43;;;;;;;10.18;2.92;;;8.90;99.90;;;;;;5029845;28;20076;-69
2024/03/27 01:49:09;;;;;;;5.38;3.63;;;8.80;99.90;;;;;;5030714;28;20048;-69
2024/03/27 01:51:34;;;;;;;4.85;3.35;;;8.70;99.90;;;;;;5029495;28;20029;-70
2024/03/27 01:54:01;;;;;;;7.38;3.00;;;8.60;99.90;;;;;;5020182;28;20113;-70
2024/03/27 01:56:26;;;;;;;6.93;3.55;;;8.40;99.90;;;;;;5029686;28;20030;-68
2024/03/27 01:58:52;;;;;;;5.18;3.25;;;8.30;99.90;;;;;;5030430;28;20023;-68
2024/03/27 02:01:18;;;;;;;6.47;3.22;;;8.30;99.90;;;;;;5033483;28;20060;-70
2024/03/27 02:03:44;;;;;;;6.38;3.47;;;8.30;99.90;;;;;;5029829;28;20044;-70
2024/03/27 02:06:10;;;;;;;7.25;3.00;;;8.20;99.90;;;;;;5029203;28;20022;-69
2024/03/27 02:08:36;;;;;;;5.05;3.30;;;8.20;99.90;;;;;;5029746;28;20029;-68
2024/03/27 02:11:02;;;;;;;7.13;3.75;;;8.20;99.90;;;;;;5030430;28;20029;-69
2024/03/27 02:13:27;;;;;;;4.30;3.40;;;8.10;99.90;;;;;;5033371;28;20065;-68
2024/03/27 02:16:00;;;;;;;6.97;3.30;;;8.00;99.90;;;;;;5046092;28;20034;-68
2024/03/27 02:18:26;;;;;;;7.90;4.20;;;8.00;99.90;;;;;;5042689;28;20022;-67
2024/03/27 02:20:52;;;;;;;7.78;3.83;;;7.90;99.90;;;;;;5042873;28;20109;-68
2024/03/27 02:23:22;;;;;;;6.22;3.03;;;7.90;99.90;;;;;;5040342;28;20092;-70
2024/03/27 02:25:59;;;;;;;10.65;3.72;;;7.90;99.90;;;;;;5003603;28;20018;-70
2024/03/27 02:28:25;;;;;;;7.22;3.25;;;7.90;99.90;;;;;;5030747;28;20407;-69
2024/03/27 02:30:51;;;;;;;5.55;3.25;;;7.80;99.90;;;;;;5029776;28;20017;-69
2024/03/27 02:33:17;;;;;;;5.57;3.50;;;7.80;99.90;;;;;;5037095;28;20037;-70
2024/03/27 02:35:42;;;;;;;7.20;4.45;;;7.80;99.90;;;;;;5030415;28;20105;-69
2024/03/27 02:38:08;;;;;;;5.55;3.28;;;7.80;99.90;;;;;;5032726;28;20024;-70
2024/03/27 02:40:34;;;;;;;6.70;3.60;;;7.80;99.90;;;;;;5035685;28;20017;-69
2024/03/27 02:42:59;;;;;;;5.95;4.20;;;7.80;99.90;;;;;;5030453;28;20034;-69
2024/03/27 02:45:25;;;;;;;6.47;3.90;;;7.80;99.90;;;;;;5029671;28;20061;-69
2024/03/27 02:47:50;;;;;;;7.70;3.70;;;7.80;99.90;;;;;;5029310;28;20026;-69
2024/03/27 02:50:16;;;;;;;12.07;4.45;;;7.80;99.90;;;;;;5030210;28;20087;-70
2024/03/27 02:52:41;;;;;;;6.38;4.07;;;7.70;99.90;;;;;;5029081;28;20045;-71
2024/03/27 02:55:07;;;;;;;6.20;3.58;;;7.70;99.90;;;;;;5030309;28;20029;-70
2024/03/27 02:57:33;;;;;;;8.20;3.67;;;7.60;99.90;;;;;;5029235;28;20038;-69
2024/03/27 02:59:59;;;;;;;8.13;3.70;;;7.60;99.90;;;;;;5038034;28;20470;-69
2024/03/27 03:02:24;;;;;;;6.60;3.78;;;7.50;99.90;;;;;;5029310;28;20037;-69
2024/03/27 03:04:50;;;;;;;7.95;3.90;;;;;;;;;;5028573;28;20111;-69
2024/03/27 03:07:16;;;;;;;6.93;4.20;;;;;;;;;;5030819;28;20227;-70
2024/03/27 03:09:42;;;;;;;7.15;4.03;;;;;;;;;;5033265;28;20033;-70
2024/03/27 03:12:08;;;;;;;6.18;3.85;;;;;;;;;;5033548;28;20108;-70
2024/03/27 03:14:34;;;;;;;5.78;3.63;;;;;;;;;;5033613;28;20028;-70
2024/03/27 03:17:00;;;;;;;6.43;3.80;;;;;;;;;;5034225;28;20025;-69
2024/03/27 03:19:26;;;;;;;4.63;3.45;;;;;;;;;;5033259;28;20494;-69
2024/03/27 03:21:52;;;;;;;7.15;3.47;;;;;;;;;;5032741;28;20025;-70
2024/03/27 03:24:18;;;;;;;5.30;3.60;;;;;;;;;;5033436;28;20120;-70
2024/03/27 03:26:44;;;;;;;7.22;4.28;;;;;;;;;;5032192;28;20093;-70
2024/03/27 03:29:10;;;;;;;6.03;3.78;;;7.10;99.90;;;;;;5033628;28;20109;-69
2024/03/27 03:31:36;;;;;;;7.55;3.90;;;7.10;99.90;;;;;;5032030;28;20112;-69
2024/03/27 03:34:01;;;;;;;5.25;3.97;;;7.00;99.90;;;;;;5041390;28;20095;-70
2024/03/27 03:36:27;;;;;;;6.03;3.88;;;6.80;99.90;;;;;;5032036;28;20359;-69
2024/03/27 03:38:52;;;;;;;6.07;3.45;;;6.80;99.90;;;;;;5033080;28;20072;-69
2024/03/27 03:41:18;;;;;;;7.43;4.80;;;6.70;99.90;;;;;;5032821;28;20096;-70
2024/03/27 03:43:43;;;;;;;8.90;4.32;;;6.60;99.90;;;;;;5032084;28;20518;-69
2024/03/27 03:46:09;;;;;;;8.35;4.03;;;6.60;99.90;;;;;;5031874;28;20048;-70
2024/03/27 03:48:35;;;;;;;9.40;4.60;;;6.50;99.90;;;;;;5032556;28;20056;-70
2024/03/27 03:51:00;;;;;;;6.03;3.85;;;6.40;99.90;;;;;;5032440;28;20061;-70
2024/03/27 03:53:26;;;;;;;4.78;3.80;;;6.40;99.90;;;;;;5032761;28;20029;-69
2024/03/27 03:55:51;;;;;;;6.38;4.40;;;6.40;99.90;;;;;;5031918;28;20025;-70
2024/03/27 03:58:17;;;;;;;10.00;4.00;;;6.40;99.90;;;;;;5033073;28;20041;-70
2024/03/27 04:00:50;;;;;;;6.63;4.50;;;6.40;99.90;;;;;;5039304;28;20040;-69
2024/03/27 04:03:15;;;;;;;9.68;4.72;;;6.40;99.90;;;;;;5032214;28;20083;-70
2024/03/27 04:05:41;;;;;;;8.07;4.72;;;6.40;99.90;;;;;;5031491;28;20033;-70
2024/03/27 04:08:07;;;;;;;5.65;4.05;;;6.40;99.90;;;;;;5027850;28;20049;-70
2024/03/27 04:10:41;;;;;;;9.52;4.45;;;6.40;99.90;;;;;;5019334;28;20017;-69
2024/03/27 04:13:07;;;;;;;8.07;4.43;;;6.40;99.90;;;;;;5033421;28;20057;-70
2024/03/27 04:15:41;;;;;;;6.07;4.00;;;6.30;99.90;;;;;;5039061;28;20033;-69
2024/03/27 04:18:06;;;;;;;7.75;4.25;;;6.30;99.90;;;;;;5029772;28;20086;-68
2024/03/27 04:20:32;;;;;;;8.10;4.85;;;6.20;99.90;;;;;;5019350;28;20097;-69
2024/03/27 04:22:58;;;;;;;6.35;4.10;;;6.20;99.90;;;;;;5031735;28;20033;-68
2024/03/27 04:25:24;;;;;;;8.48;4.60;;;6.20;99.90;;;;;;5032386;28;20032;-68
2024/03/27 04:27:50;;;;;;;11.20;5.80;;;6.20;99.90;;;;;;5031374;28;20034;-69
2024/03/27 04:30:16;;;;;;;7.18;5.15;;;6.10;99.90;;;;;;5032245;28;20036;-69
2024/03/27 04:32:43;;;;;;;10.07;5.53;;;6.10;99.90;;;;;;5030625;28;20022;-69
2024/03/27 04:35:09;;;;;;;10.32;5.30;;;6.10;99.90;;;;;;5035959;28;20021;-68
2024/03/27 04:37:35;;;;;;;9.85;4.90;;;6.10;99.90;;;;;;5030920;28;20025;-68
2024/03/27 04:40:09;;;;;;;9.52;5.57;;;6.10;99.90;;;;;;5032212;28;20103;-68
2024/03/27 04:42:35;;;;;;;10.32;4.80;;;6.10;99.90;;;;;;5028219;28;20044;-68
2024/03/27 04:45:04;;;;;;;10.27;5.45;;;6.10;99.90;;;;;;5032020;28;20057;-68
2024/03/27 04:47:33;;;;;;;9.38;5.45;;;6.10;99.90;;;;;;5030771;28;20025;-69
2024/03/27 04:49:59;;;;;;;7.75;5.30;;;6.00;99.90;;;;;;5031655;28;20036;-69
2024/03/27 04:52:24;;;;;;;5.75;4.55;;;6.00;99.90;;;;;;5031181;28;20029;-69
2024/03/27 04:54:50;;;;;;;9.07;6.15;;;6.00;99.90;;;;;;5031329;28;20075;-69
2024/03/27 04:57:18;;;;;;;8.75;5.45;;;6.00;99.90;;;;;;5031033;28;20025;-69
2024/03/27 04:59:44;;;;;;;8.40;4.85;;;6.00;99.90;;;;;;5038284;28;20104;-69
2024/03/27 05:02:11;;;;;;;8.73;5.82;;;6.00;99.90;;;;;;5032100;28;20501;-69
2024/03/27 05:04:37;;;;;;;12.13;5.78;;;6.00;99.90;;;;;;5030546;28;20033;-69
2024/03/27 05:07:03;;;;;;;6.60;4.78;;;6.00;99.90;;;;;;5009276;28;20114;-69
2024/03/27 05:09:30;;;;;;;16.38;7.45;;;5.90;99.90;;;;;;5030963;28;20038;-69
2024/03/27 05:11:58;;;;;;;13.35;7.03;;;5.90;99.90;;;;;;5031141;28;20022;-69
2024/03/27 05:14:23;;;;;;;12.18;6.30;;;6.00;99.90;;;;;;5034538;28;20025;-69
2024/03/27 05:16:49;;;;;;;15.80;6.25;;;6.00;99.90;;;;;;5030038;28;20083;-69
2024/03/27 05:19:14;;;;;;;12.05;6.00;;;6.00;99.90;;;;;;5028936;28;20071;-70
2024/03/27 05:21:40;;;;;;;14.88;6.20;;;6.10;99.90;;;;;;5029852;28;20075;-69
2024/03/27 05:24:06;;;;;;;8.48;6.15;;;6.10;99.90;;;;;;5031342;28;20049;-69
2024/03/27 05:26:32;;;;;;;9.02;5.88;;;6.20;99.90;;;;;;5016343;28;20032;-69
2024/03/27 05:28:58;;;;;;;8.65;6.05;;;6.20;99.90;;;;;;5031633;28;20018;-69
2024/03/27 05:31:25;;;;;;;10.45;5.68;;;6.20;99.90;;;;;;5030403;28;20033;-69
2024/03/27 05:33:50;;;;;;;10.90;6.55;;;6.20;99.90;;;;;;5024943;28;20033;-70
2024/03/27 05:36:16;;;;;;;11.57;6.60;;;6.30;99.90;;;;;;5030236;28;20029;-70
2024/03/27 05:38:42;;;;;;;12.13;6.22;;;6.30;99.90;;;;;;5029924;28;20026;-70
2024/03/27 05:41:07;;;;;;;12.30;7.03;;;6.40;99.90;;;;;;5037428;28;20034;-69
2024/03/27 05:43:33;;;;;;;11.63;6.40;;;6.40;99.90;;;;;;5030346;28;20486;-73
2024/03/27 05:45:59;;;;;;;11.45;6.80;;;6.40;99.90;;;;;;5030203;28;20092;-70
2024/03/27 05:48:25;;;;;;;10.85;5.95;;;6.40;99.90;;;;;;5031118;28;20076;-71
2024/03/27 05:50:54;;;;;;;12.25;6.10;;;6.40;99.90;;;;;;5029887;28;20041;-70
2024/03/27 05:53:20;;;;;;;11.25;6.68;;;6.40;99.90;;;;;;5030767;28;20044;-70
2024/03/27 05:55:59;;;;;;;11.65;6.25;;;6.40;99.90;;;;;;5029808;28;20355;-70
2024/03/27 05:58:28;;;;;;;14.70;6.25;;;6.40;99.90;;;;;;5028475;28;20029;-71
2024/03/27 06:00:55;;;;;;;12.70;5.93;;;6.40;99.90;;;;;;5026888;28;20042;-70
2024/03/27 06:03:21;;;;;;;11.45;6.25;;;6.50;99.90;;;;;;5010104;28;20494;-69
2024/03/27 06:05:46;;;;;;;10.02;5.82;;;6.50;99.90;;;;;;5028952;28;20057;-69
2024/03/27 06:08:12;;;;;;;13.20;6.10;;;6.50;99.90;;;;;;5030720;28;20028;-69
2024/03/27 06:10:38;;;;;;;11.27;6.80;;;6.50;99.90;;;;;;5028526;28;20044;-70
2024/03/27 06:13:04;;;;;;;14.60;7.07;;;6.60;99.90;;;;;;5019828;28;20164;-68
2024/03/27 06:15:33;;;;;;;18.23;8.63;;;6.60;99.90;;;;;;5029574;28;20030;-69
2024/03/27 06:18:00;;;;;;;18.48;8.23;;;6.60;99.90;;;;;;5011635;28;20033;-69
2024/03/27 06:20:26;;;;;;;15.68;7.90;;;6.70;99.90;;;;;;5029080;28;20045;-69
2024/03/27 06:22:52;;;;;;;12.45;6.97;;;6.80;99.90;;;;;;5028541;28;20034;-68
2024/03/27 06:25:18;;;;;;;10.52;6.72;;;6.90;99.90;;;;;;5029011;28;20116;-69
2024/03/27 06:27:44;;;;;;;10.27;5.75;;;7.00;99.90;;;;;;5027827;28;20128;-69
2024/03/27 06:30:12;;;;;;;10.10;6.13;;;7.00;99.90;;;;;;5026851;28;20091;-68
2024/03/27 06:32:39;;;;;;;13.40;6.47;;;7.10;99.90;;;;;;5028571;28;20039;-69
2024/03/27 06:35:06;;;;;;;13.25;7.30;;;7.20;99.90;;;;;;5023033;28;20033;-69
2024/03/27 06:37:31;;;;;;;12.80;6.78;;;7.30;99.90;;;;;;5032859;28;20092;-69
2024/03/27 06:39:57;;;;;;;13.48;6.78;;;7.30;99.90;;;;;;5029116;28;20433;-69
2024/03/27 06:42:23;;;;;;;12.73;6.50;;;7.40;99.90;;;;;;5011628;28;20038;-69
2024/03/27 06:44:49;;;;;;;13.82;6.75;;;7.50;99.90;;;;;;5033452;28;20088;-70
2024/03/27 06:47:15;;;;;;;13.00;6.35;;;7.60;99.90;;;;;;5033368;28;20057;-70
2024/03/27 06:49:40;;;;;;;11.98;6.97;;;7.80;99.90;;;;;;5033291;28;20026;-68
2024/03/27 06:52:06;;;;;;;15.75;7.13;;;7.80;99.90;;;;;;5033325;28;20099;-69
2024/03/27 06:54:32;;;;;;;13.68;8.55;;;8.00;99.90;;;;;;5030675;28;20057;-74
2024/03/27 06:56:57;;;;;;;12.43;7.22;;;8.00;99.90;;;;;;5030959;28;20022;-67
2024/03/27 06:59:23;;;;;;;16.20;7.57;;;8.10;99.90;;;;;;5036495;28;20037;-69
2024/03/27 07:01:49;;;;;;;13.77;7.18;;;8.20;99.90;;;;;;5035908;28;20029;-69
2024/03/27 07:04:14;;;;;;;16.00;7.13;;;8.30;99.90;;;;;;5032669;28;20390;-66
2024/03/27 07:06:40;;;;;;;14.35;6.28;;;8.40;99.90;;;;;;5031567;28;20044;-67
2024/03/27 07:09:05;;;;;;;15.00;6.70;;;8.60;99.90;;;;;;5030244;28;20030;-68
2024/03/27 07:11:31;;;;;;;7.88;5.70;;;8.70;99.90;;;;;;5012086;28;20034;-68
2024/03/27 07:13:57;;;;;;;9.98;5.30;;;8.80;99.90;;;;;;5040084;28;20025;-68
2024/03/27 07:16:22;;;;;;;11.52;6.63;;;8.80;99.90;;;;;;5032935;28;20030;-68
2024/03/27 07:18:48;;;;;;;11.25;5.93;;;8.90;99.90;;;;;;5034772;28;20018;-68
2024/03/27 07:21:13;;;;;;;11.75;5.93;;;9.10;99.90;;;;;;5036287;28;20047;-68
2024/03/27 07:23:39;;;;;;;12.65;6.40;;;9.20;99.90;;;;;;5032421;28;20180;-68
2024/03/27 07:26:06;;;;;;;12.13;6.45;;;9.30;99.90;;;;;;5044139;28;20025;-68
2024/03/27 07:28:32;;;;;;;11.20;6.05;;;9.40;99.90;;;;;;5032621;28;20118;-68
2024/03/27 07:30:58;;;;;;;10.85;6.35;;;9.50;99.90;;;;;;5015437;28;20076;-69
2024/03/27 07:33:25;;;;;;;10.13;5.97;;;9.50;99.90;;;;;;5033429;28;20029;-69
2024/03/27 07:35:51;;;;;;;11.85;6.50;;;9.60;99.90;;;;;;5013343;28;20036;-69
2024/03/27 07:38:17;;;;;;;13.50;5.75;;;9.80;99.90;;;;;;5033507;28;20021;-69
2024/03/27 07:40:43;;;;;;;9.15;5.72;;;9.80;99.90;;;;;;5030501;28;20080;-69
2024/03/27 07:43:08;;;;;;;12.98;6.40;;;9.90;99.90;;;;;;5029643;28;20037;-69
2024/03/27 07:45:35;;;;;;;11.48;5.93;;;10.00;99.90;;;;;;5025213;28;20061;-68
2024/03/27 07:48:00;;;;;;;12.50;6.05;;;10.20;99.90;;;;;;5033122;28;20109;-69
2024/03/27 07:50:26;;;;;;;13.02;6.85;;;10.40;99.90;;;;;;5032910;28;20087;-68
2024/03/27 07:52:52;;;;;;;14.20;7.47;;;10.60;99.90;;;;;;5028166;28;20163;-69
2024/03/27 07:55:17;;;;;;;14.00;6.68;;;10.80;99.90;;;;;;5032137;28;20030;-68
2024/03/27 07:57:43;;;;;;;10.98;6.35;;;11.00;99.90;;;;;;5025464;28;20064;-69
2024/03/27 08:00:11;;;;;;;14.30;6.00;;;11.20;99.90;;;;;;5031364;28;20117;-69
2024/03/27 08:02:38;;;;;;;10.60;6.40;;;11.40;99.90;;;;;;5031997;28;20029;-69
2024/03/27 08:05:05;;;;;;;14.25;6.82;;;11.60;99.90;;;;;;5030592;28;20029;-68
2024/03/27 08:07:31;;;;;;;13.98;6.00;;;12.00;99.90;;;;;;5031977;28;20033;-68
2024/03/27 08:09:57;;;;;;;11.20;5.70;;;12.10;99.90;;;;;;5033009;28;20099;-68
2024/03/27 08:12:22;;;;;;;12.40;5.80;;;12.20;99.90;;;;;;5026941;28;20045;-68
2024/03/27 08:14:48;;;;;;;8.90;5.28;;;12.20;99.90;;;;;;5029320;28;20021;-69
2024/03/27 08:17:14;;;;;;;10.40;6.07;;;12.10;99.90;;;;;;5022513;28;20068;-68
2024/03/27 08:19:40;;;;;;;13.07;5.53;;;12.20;99.90;;;;;;5027693;28;20030;-68
2024/03/27 08:22:07;;;;;;;13.95;6.07;;;12.30;99.90;;;;;;5032410;28;20036;-69
2024/03/27 08:24:33;;;;;;;16.50;5.75;;;12.40;99.90;;;;;;5031546;28;20497;-68
2024/03/27 08:26:58;;;;;;;14.23;5.55;;;12.50;99.90;;;;;;5042721;28;20049;-69
2024/03/27 08:29:24;;;;;;;8.82;6.13;;;12.60;99.90;;;;;;5032517;28;20034;-68
2024/03/27 08:31:49;;;;;;;12.80;5.25;;;12.70;99.90;;;;;;5031042;28;20025;-67
2024/03/27 08:34:15;;;;;;;8.50;4.50;;;12.80;99.90;;;;;;5031914;28;20030;-68
2024/03/27 08:36:40;;;;;;;11.75;5.22;;;12.90;99.90;;;;;;5030792;28;20029;-68
2024/03/27 08:39:09;;;;;;;11.50;5.25;;;12.90;99.90;;;;;;5032463;28;20053;-68
2024/03/27 08:41:35;;;;;;;9.52;5.70;;;12.90;99.90;;;;;;5030840;28;20022;-68
2024/03/27 08:44:04;;;;;;;12.15;5.25;;;13.00;99.90;;;;;;5032315;28;20041;-68
2024/03/27 08:46:30;;;;;;;8.73;5.25;;;13.00;99.90;;;;;;5012153;28;20037;-67
2024/03/27 08:48:56;;;;;;;15.60;5.15;;;13.00;99.90;;;;;;5032021;28;20025;-68
2024/03/27 08:51:23;;;;;;;12.00;4.80;;;13.00;99.90;;;;;;5031412;28;20048;-68
2024/03/27 08:53:51;;;;;;;9.43;4.88;;;12.90;99.90;;;;;;5031212;28;20105;-68
2024/03/27 08:56:17;;;;;;;14.70;5.03;;;12.90;99.90;;;;;;5030565;28;20021;-68
2024/03/27 08:58:43;;;;;;;12.10;5.43;;;13.00;99.90;;;;;;5031475;28;20018;-68
2024/03/27 09:01:15;;;;;;;9.00;5.35;;;12.90;99.90;;;;;;5031330;28;20029;-69
2024/03/27 09:03:41;;;;;;;12.75;5.15;;;13.00;99.90;;;;;;5029240;28;20029;-68
2024/03/27 09:06:08;;;;;;;15.68;5.85;;;13.00;99.90;;;;;;5030394;28;20053;-67
2024/03/27 09:08:34;;;;;;;10.85;5.32;;;13.10;99.90;;;;;;5028355;28;20021;-68
2024/03/27 09:11:00;;;;;;;14.18;5.40;;;13.10;99.90;;;;;;5029521;28;20037;-68
2024/03/27 09:13:26;;;;;;;9.32;5.20;;;13.20;99.90;;;;;;5031929;28;20042;-68
2024/03/27 09:15:54;;;;;;;8.90;4.95;;;13.20;99.90;;;;;;5036009;28;20029;-68
2024/03/27 09:18:20;;;;;;;9.30;5.35;;;13.20;99.90;;;;;;5030704;28;20026;-68
2024/03/27 09:20:53;;;;;;;8.77;5.15;;;13.30;99.90;;;;;;5030547;28;20022;-69
2024/03/27 09:23:19;;;;;;;8.57;5.20;;;13.40;99.90;;;;;;5031906;28;20041;-69
2024/03/27 09:25:58;;;;;;;8.25;5.28;;;13.60;99.90;;;;;;5040540;28;20362;-69
2024/03/27 09:28:25;;;;;;;15.45;6.30;;;13.60;99.90;;;;;;5030063;28;20021;-68
2024/03/27 09:30:51;;;;;;;13.07;7.10;;;13.70;99.90;;;;;;5030240;28;20040;-68
2024/03/27 09:33:17;;;;;;;9.30;5.90;;;13.80;99.90;;;;;;5031287;28;20060;-67
2024/03/27 09:35:45;;;;;;;12.60;5.70;;;13.90;99.90;;;;;;5029786;28;20029;-69
2024/03/27 09:38:10;;;;;;;8.80;5.40;;;13.90;99.90;;;;;;5030981;28;20062;-68
2024/03/27 09:40:40;;;;;;;9.88;5.80;;;13.90;99.90;;;;;;5029751;28;20481;-68
2024/03/27 09:43:06;;;;;;;23.20;8.43;;;13.80;99.90;;;;;;5031405;28;20029;-68
2024/03/27 09:45:34;;;;;;;9.18;6.00;;;13.70;99.90;;;;;;5029868;28;20132;-68
2024/03/27 09:48:01;;;;;;;12.20;6.13;;;13.90;99.90;;;;;;5031173;28;20017;-67
2024/03/27 09:50:30;;;;;;;10.18;6.22;;;14.20;99.90;;;;;;5031024;28;20045;-67
2024/03/27 09:52:57;;;;;;;12.03;6.13;;;14.70;99.90;;;;;;5009489;28;20030;-69
2024/03/27 09:55:24;;;;;;;11.38;5.75;;;14.90;99.90;;;;;;5029346;28;20028;-69
2024/03/27 09:57:49;;;;;;;11.25;6.18;;;15.10;99.90;;;;;;5029858;28;20031;-68
2024/03/27 10:00:15;;;;;;;11.82;5.47;;;15.20;99.90;;;;;;5030958;28;20037;-69
2024/03/27 10:02:41;;;;;;;8.77;5.05;;;15.50;99.90;;;;;;5029404;28;20064;-69
2024/03/27 10:05:10;;;;;;;12.73;5.35;;;15.60;99.90;;;;;;5030437;28;20036;-68
2024/03/27 10:07:36;;;;;;;11.68;5.55;;;15.50;99.90;;;;;;5029796;28;20453;-68
2024/03/27 10:10:03;;;;;;;9.27;5.75;;;15.30;99.90;;;;;;5029505;28;20084;-69
2024/03/27 10:12:28;;;;;;;12.63;5.63;;;15.40;99.90;;;;;;5029469;28;20053;-69
2024/03/27 10:14:54;;;;;;;15.25;6.25;;;15.50;99.90;;;;;;5038456;28;20067;-68
2024/03/27 10:17:19;;;;;;;16.05;5.88;;;15.70;99.90;;;;;;5028341;28;20033;-68
2024/03/27 10:19:45;;;;;;;9.68;5.22;;;16.00;99.90;;;;;;5028127;28;20453;-67
2024/03/27 10:22:11;;;;;;;9.70;5.70;;;16.10;99.90;;;;;;5025927;28;20044;-69
2024/03/27 10:24:38;;;;;;;7.97;5.28;;;15.80;99.90;;;;;;5022524;28;20087;-67
2024/03/27 10:27:03;;;;;;;12.55;5.40;;;15.50;99.90;;;;;;5013891;28;20114;-69
2024/03/27 10:29:29;;;;;;;11.27;5.95;;;15.40;99.90;;;;;;5025871;28;20108;-68
2024/03/27 10:31:56;;;;;;;7.72;4.82;;;15.10;99.90;;;;;;5030335;28;20034;-68
2024/03/27 10:34:22;;;;;;;11.95;5.57;;;14.80;99.90;;;;;;5032192;28;20030;-68
2024/03/27 10:36:50;;;;;;;10.82;5.15;;;14.60;99.90;;;;;;5029457;28;20022;-68
2024/03/27 10:39:17;;;;;;;11.70;5.50;;;14.70;99.90;;;;;;5030490;28;20029;-68
2024/03/27 10:41:43;;;;;;;10.20;5.57;;;14.70;99.90;;;;;;5029411;28;20175;-68
2024/03/27 10:44:11;;;;;;;10.65;4.70;;;14.90;99.90;;;;;;5030062;28;20037;-68
2024/03/27 10:46:39;;;;;;;12.27;5.18;;;15.00;99.90;;;;;;5027356;28;20450;-69
2024/03/27 10:49:07;;;;;;;12.70;4.80;;;15.20;99.90;;;;;;5028270;28;20029;-69
2024/03/27 10:51:33;;;;;;;6.97;5.35;;;15.20;99.90;;;;;;5029361;28;20033;-70
2024/03/27 10:53:59;;;;;;;9.70;5.00;;;15.10;99.90;;;;;;5030262;28;20029;-68
2024/03/27 10:56:25;;;;;;;8.48;5.40;;;15.00;99.90;;;;;;5029250;28;20076;-69
2024/03/27 11:05:15;;;;;;;9.63;5.07;;;15.50;99.90;;;;;;5316150;23;20054;-69
2024/03/27 11:07:41;;;;;;;6.18;4.70;;;15.50;99.90;;;;;;5036189;28;20060;-69
2024/03/27 11:10:07;;;;;;;11.15;5.75;;;15.30;99.90;;;;;;5030940;28;20034;-69
2024/03/27 11:12:33;;;;;;;12.27;4.40;;;15.20;99.90;;;;;;5028914;28;20028;-69
2024/03/27 11:15:04;;;;;;;7.32;4.85;;;15.20;99.90;;;;;;5030963;28;20033;-69
2024/03/27 11:17:30;;;;;;;7.47;5.18;;;15.10;99.90;;;;;;5028176;28;20104;-67
2024/03/27 11:19:58;;;;;;;9.23;5.88;;;14.90;99.90;;;;;;5028202;28;20048;-68
2024/03/27 11:22:24;;;;;;;6.95;5.90;;;14.70;99.90;;;;;;5028427;28;20467;-69
2024/03/27 11:24:51;;;;;;;9.25;6.00;;;14.70;99.90;;;;;;5029112;28;20198;-68
2024/03/27 11:27:27;;;;;;;12.77;6.15;;;14.80;99.90;;;;;;5029989;28;20541;-69
2024/03/27 11:29:57;;;;;;;11.77;5.28;;;15.00;99.90;;;;;;5032795;28;20026;-68
2024/03/27 11:32:23;;;;;;;17.27;6.22;;;15.10;99.90;;;;;;5033479;28;20493;-68
2024/03/27 11:34:50;;;;;;;7.03;5.70;;;14.70;99.90;;;;;;5032952;28;20041;-69
2024/03/27 11:37:15;;;;;;;8.15;5.32;;;14.60;99.90;;;;;;5033491;28;20378;-68
2024/03/27 11:39:41;;;;;;;8.68;5.38;;;14.50;99.90;;;;;;5031057;28;20037;-69
2024/03/27 11:42:07;;;;;;;10.00;5.50;;;14.30;99.90;;;;;;5024113;28;20232;-69
2024/03/27 11:44:33;;;;;;;8.82;5.57;;;14.20;99.90;;;;;;5031780;28;20387;-69
2024/03/27 11:46:59;;;;;;;7.90;5.15;;;14.20;99.90;;;;;;5031663;28;20025;-69
2024/03/27 11:49:24;;;;;;;7.53;5.10;;;14.20;99.90;;;;;;5032442;28;20037;-68
2024/03/27 11:51:50;;;;;;;6.25;4.82;;;14.20;99.90;;;;;;5032325;28;20074;-68
2024/03/27 11:54:16;;;;;;;9.20;5.35;;;14.10;99.90;;;;;;5032924;28;20040;-68
2024/03/27 11:56:41;;;;;;;11.90;4.78;;;13.90;99.90;;;;;;5025200;28;20171;-67
2024/03/27 11:59:07;;;;;;;7.28;4.85;;;13.70;99.90;;;;;;5033047;28;20375;-68
2024/03/27 12:01:34;;;;;;;6.43;4.63;;;13.60;99.90;;;;;;5031789;28;20029;-68
2024/03/27 12:04:03;;;;;;;6.05;3.95;;;;;;;;;;5032057;28;20055;-67
2024/03/27 12:06:29;;;;;;;5.22;4.03;;;13.30;99.90;;;;;;5032389;28;20029;-68
2024/03/27 12:08:55;;;;;;;4.00;2.88;;;13.10;99.90;;;;;;5031078;28;20518;-68
2024/03/27 12:11:21;;;;;;;5.18;2.78;;;13.10;99.90;;;;;;5020335;28;20438;-68
2024/03/27 12:13:48;;;;;;;4.03;2.58;;;13.10;99.90;;;;;;5029611;28;20021;-69
2024/03/27 12:16:14;;;;;;;4.50;2.40;;;13.00;99.90;;;;;;5019568;28;20498;-68
2024/03/27 12:18:44;;;;;;;3.08;1.75;;;13.10;99.90;;;;;;5029997;28;20030;-68
2024/03/27 12:21:13;;;;;;;2.63;1.30;;;13.10;99.90;;;;;;5032122;28;20438;-68
2024/03/27 12:23:40;;;;;;;9.60;1.88;;;13.10;99.90;;;;;;5032161;28;20051;-68
2024/03/27 12:26:20;;;;;;;2.33;1.10;;;13.20;99.90;;;;;;5032268;28;20104;-68
2024/03/27 12:28:50;;;;;;;3.50;1.33;;;13.30;99.90;;;;;;5029854;28;20183;-69
2024/03/27 12:31:24;;;;;;;5.65;1.42;;;13.40;99.90;;;;;;5030030;28;20171;-68
2024/03/27 12:33:50;;;;;;;0.77;0.75;;;13.30;99.90;;;;;;5032015;28;20055;-68
2024/03/27 12:36:16;;;;;;;1.15;0.90;;;13.20;99.90;;;;;;5032160;28;20518;-68
2024/03/27 12:38:42;;;;;;;0.98;0.85;;;13.20;99.90;;;;;;5031917;28;20026;-69
2024/03/27 12:41:08;;;;;;;2.03;0.80;;;13.40;99.90;;;;;;5031042;28;20108;-69
2024/03/27 12:43:34;;;;;;;0.80;0.80;;;13.80;99.90;;;;;;5031692;28;20113;-69
2024/03/27 12:46:00;;;;;;;2.72;0.85;;;14.00;99.90;;;;;;5027695;28;20037;-69
2024/03/27 12:48:26;;;;;;;2.30;0.77;;;14.20;99.90;;;;;;5028544;28;20032;-69
2024/03/27 12:50:52;;;;;;;2.85;0.82;;;14.10;99.90;;;;;;5030959;28;20614;-69
2024/03/27 12:53:18;;;;;;;1.27;0.60;;;14.20;99.90;;;;;;5032285;28;20036;-69
2024/03/27 12:55:45;;;;;;;2.85;0.75;;;14.20;99.90;;;;;;5030672;28;20026;-69
2024/03/27 12:58:11;;;;;;;2.33;0.80;;;14.10;99.90;;;;;;5031958;28;20419;-68
2024/03/27 13:00:38;;;;;;;1.88;0.75;;;13.70;99.90;;;;;;5030534;28;20076;-68
2024/03/27 13:03:04;;;;;;;1.10;0.60;;;13.40;99.90;;;;;;5030114;28;20033;-69
2024/03/27 13:05:33;;;;;;;2.92;1.00;;;13.00;99.90;;;;;;5031766;28;20347;-68
2024/03/27 13:07:58;;;;;;;3.58;1.10;;;12.80;99.90;;;;;;5030925;28;20032;-68